Time;durP1;ratioP1;P1;durP2;ratioP2;P2;SDS_P1;SDS_P2;PMS_P1;PMS_P2;Temp;Humidity;BMP_temperature;BMP_pressure;BME280_temperature;BME280_humidity;BME280_pressure;Samples;Min_cycle;Max_cycle;Signal;HPM_P1;HPM_P2
2020/12/07 00:01:56;;;;;;;14.87;7.55;;;;;;;20.20;37.58;101107.73;1777620;79;21161;-35
2020/12/07 00:04:24;;;;;;;8.58;7.17;;;;;;;20.22;37.60;101108.51;1725672;81;21238;-36
2020/12/07 00:06:53;;;;;;;10.58;7.35;;;;;;;20.23;37.65;101111.59;1764747;79;21396;-37
2020/12/07 00:09:21;;;;;;;12.23;7.03;;;;;;;20.25;37.70;101113.70;1749417;79;21140;-37
2020/12/07 00:11:50;;;;;;;10.72;7.87;;;;;;;20.28;37.66;101114.89;1797371;79;21118;-36
2020/12/07 00:14:18;;;;;;;10.00;7.22;;;;;;;20.29;37.66;101117.98;1802272;79;21103;-36
2020/12/07 00:16:46;;;;;;;10.48;7.45;;;;;;;20.30;37.72;101113.48;1766059;79;21643;-36
2020/12/07 00:19:14;;;;;;;10.63;7.25;;;;;;;20.32;37.66;101116.94;1764927;79;21341;-36
2020/12/07 00:21:43;;;;;;;15.13;7.30;;;;;;;20.31;37.54;101110.73;1766411;79;21152;-36
2020/12/07 00:24:12;;;;;;;10.28;6.75;;;;;;;20.33;37.64;101115.53;1762425;79;21232;-36
2020/12/07 00:26:44;;;;;;;10.05;6.90;;;;;;;20.35;37.67;101111.45;1763562;79;21156;-36
2020/12/07 00:29:12;;;;;;;14.63;7.03;;;;;;;20.34;37.67;101109.26;1793808;79;21661;-37
2020/12/07 00:31:39;;;;;;;11.88;6.85;;;;;;;20.35;37.67;101110.97;1719390;79;21965;-36
2020/12/07 00:34:06;;;;;;;10.38;7.05;;;;;;;20.36;37.72;101111.37;1761895;80;21120;-36
2020/12/07 00:36:34;;;;;;;9.60;6.78;;;;;;;20.37;37.76;101118.43;1719905;79;21164;-36
2020/12/07 00:39:02;;;;;;;10.85;6.53;;;;;;;20.38;37.71;101120.17;1800520;79;21622;-36
2020/12/07 00:41:29;;;;;;;9.80;6.80;;;;;;;20.39;37.67;101110.34;1763141;81;21101;-36
2020/12/07 00:43:57;;;;;;;9.18;6.55;;;;;;;20.38;37.55;101112.16;1784220;79;21206;-36
2020/12/07 00:46:25;;;;;;;9.50;6.65;;;;;;;20.39;37.58;101106.33;1775238;79;21114;-36
2020/12/07 00:48:52;;;;;;;9.95;6.15;;;;;;;20.40;37.60;101104.92;1799179;79;21192;-36
2020/12/07 00:51:20;;;;;;;15.75;6.55;;;;;;;20.40;37.54;101098.23;1794890;79;21187;-36
2020/12/07 00:53:47;;;;;;;8.85;6.60;;;;;;;20.41;37.59;101103.98;1747464;79;21192;-36
2020/12/07 00:56:15;;;;;;;14.73;6.87;;;;;;;20.43;37.58;101106.59;1796766;79;21641;-37
2020/12/07 00:58:43;;;;;;;8.58;6.25;;;;;;;20.44;37.53;101108.78;1788696;79;21177;-36
2020/12/07 01:01:12;;;;;;;10.50;6.05;;;;;;;20.44;37.54;101107.44;1751477;78;21606;-37
2020/12/07 01:03:42;;;;;;;7.83;6.25;;;;;;;20.44;37.65;101105.63;1795843;79;21176;-36
2020/12/07 01:06:10;;;;;;;10.70;6.62;;;;;;;20.46;37.58;101100.20;1764892;79;21123;-36
2020/12/07 01:08:38;;;;;;;8.13;6.15;;;;;;;20.45;37.61;101099.34;1761605;79;22124;-36
2020/12/07 01:11:06;;;;;;;7.37;5.95;;;;;;;20.47;37.63;101103.28;1779008;79;21139;-37
2020/12/07 01:13:34;;;;;;;8.50;6.25;;;;;;;20.48;37.67;101101.02;1787076;79;21177;-37
2020/12/07 01:16:02;;;;;;;7.90;6.20;;;;;;;20.47;37.63;101092.11;1738113;80;21188;-36
2020/12/07 01:18:30;;;;;;;8.25;5.72;;;;;;;20.49;37.63;101096.04;1740872;78;21063;-36
2020/12/07 01:20:58;;;;;;;11.57;6.10;;;;;;;20.50;37.67;101097.78;1776386;80;21230;-36
2020/12/07 01:23:26;;;;;;;6.72;6.03;;;;;;;20.50;37.60;101101.80;1780074;78;21135;-36
2020/12/07 01:25:54;;;;;;;11.40;6.12;;;;;;;20.50;37.58;101097.30;1760575;80;21108;-36
2020/12/07 01:28:22;;;;;;;11.60;5.87;;;;;;;20.51;37.59;101092.81;1823876;78;21189;-36
2020/12/07 01:30:50;;;;;;;9.95;5.80;;;;;;;20.51;37.61;101090.13;1786931;79;21073;-36
2020/12/07 01:33:18;;;;;;;11.00;5.83;;;;;;;20.52;37.70;101083.38;1801302;78;21212;-36
2020/12/07 01:35:47;;;;;;;9.23;5.85;;;;;;;20.52;37.72;101083.86;1747390;79;21144;-35
2020/12/07 01:38:14;;;;;;;9.63;6.30;;;;;;;20.53;37.65;101093.63;1820752;78;21137;-35
2020/12/07 01:40:43;;;;;;;9.13;6.55;;;;;;;20.54;37.81;101095.33;1801502;77;21158;-36
2020/12/07 01:43:11;;;;;;;7.95;5.70;;;;;;;20.55;37.89;101098.41;1745625;80;21065;-36
2020/12/07 01:45:40;;;;;;;12.98;5.70;;;;;;;20.54;37.88;101084.19;1798005;77;21367;-35
2020/12/07 01:48:09;;;;;;;18.30;6.12;;;;;;;20.56;37.88;101090.77;1787680;78;21161;-35
2020/12/07 01:50:40;;;;;;;10.72;5.72;;;;;;;20.56;37.94;101088.98;1787355;79;21070;-36
2020/12/07 01:53:11;;;;;;;11.53;5.92;;;;;;;20.57;37.95;101095.18;1719145;80;21089;-35
2020/12/07 01:55:41;;;;;;;8.13;5.20;;;;;;;20.57;37.96;101090.69;1773082;78;21217;-36
2020/12/07 01:58:08;;;;;;;12.40;5.47;;;;;;;20.58;38.08;101083.55;1809049;78;22255;-35
2020/12/07 02:00:37;;;;;;;12.53;5.90;;;;;;;20.58;38.09;101081.73;1732285;78;21176;-36
2020/12/07 02:03:09;;;;;;;6.17;5.55;;;;;;;20.59;38.08;101074.56;1778264;80;21150;-36
2020/12/07 02:05:38;;;;;;;9.18;5.53;;;;;;;20.58;38.14;101079.06;1792392;78;21139;-35
2020/12/07 02:08:18;;;;;;;10.15;5.90;;;;;;;20.59;38.36;101075.91;1763400;80;21199;-35
2020/12/07 02:10:55;;;;;;;6.33;5.53;;;;;;;20.61;38.36;101080.73;1785115;78;21554;-35
2020/12/07 02:13:24;;;;;;;11.83;5.75;;;;;;;20.60;38.43;101076.31;1800080;77;21187;-36
2020/12/07 02:15:53;;;;;;;8.15;5.00;;;;;;;20.61;38.50;101087.41;1764588;78;21606;-36
2020/12/07 02:18:22;;;;;;;6.75;5.35;;;;;;;20.60;38.51;101083.84;1769122;79;21176;-36
2020/12/07 02:20:50;;;;;;;8.65;6.10;;;;;;;20.61;38.54;101088.75;1799439;78;21131;-35
2020/12/07 02:23:19;;;;;;;12.13;5.42;;;;;;;20.62;38.59;101096.29;1764000;78;22149;-36
2020/12/07 02:25:48;;;;;;;7.80;5.35;;;;;;;20.62;38.74;101092.28;1802654;78;21131;-36
2020/12/07 02:28:17;;;;;;;8.58;5.53;;;;;;;20.63;38.82;101094.02;1808781;78;21135;-35
2020/12/07 02:30:45;;;;;;;14.75;6.10;;;;;;;20.62;38.85;101091.80;1773550;79;21583;-36
2020/12/07 02:33:16;;;;;;;9.43;5.42;;;;;;;20.62;38.85;101081.10;1774242;78;21147;-36
2020/12/07 02:35:44;;;;;;;7.12;4.97;;;;;;;20.62;38.97;101085.11;1767639;78;21141;-36
2020/12/07 02:38:13;;;;;;;9.60;5.05;;;;;;;20.62;38.91;101073.56;1760140;80;21172;-36
2020/12/07 02:40:42;;;;;;;13.35;5.10;;;;;;;20.63;38.91;101081.54;1749425;79;21202;-36
2020/12/07 02:43:11;;;;;;;14.70;5.22;;;;;;;20.62;38.90;101078.91;1756501;79;21613;-36
2020/12/07 02:45:39;;;;;;;6.15;5.10;;;;;;;20.63;38.95;101088.67;1752915;79;21089;-35
2020/12/07 02:48:08;;;;;;;7.25;5.15;;;;;;;20.62;38.98;101090.94;1744271;81;21146;-36
2020/12/07 02:50:37;;;;;;;9.15;5.22;;;;;;;20.62;38.99;101089.12;1794843;79;21185;-36
2020/12/07 02:53:07;;;;;;;5.78;5.10;;;;;;;20.64;38.95;101096.62;1744937;79;21164;-36
2020/12/07 02:55:36;;;;;;;6.33;5.00;;;;;;;20.63;38.96;101089.56;1751042;79;21160;-37
2020/12/07 02:58:03;;;;;;;7.03;4.92;;;;;;;20.63;39.02;101090.89;1763579;79;21561;-36
2020/12/07 03:00:32;;;;;;;5.85;4.75;;;;;;;20.64;38.90;101097.95;1779099;79;21378;-36
2020/12/07 03:03:00;;;;;;;9.55;5.25;;;;;;;20.64;38.89;101107.31;1788965;79;21168;-36
2020/12/07 03:05:29;;;;;;;7.20;4.65;;;;;;;20.64;38.76;101099.30;1743627;78;21072;-36
2020/12/07 03:07:59;;;;;;;6.90;4.90;;;;;;;20.63;38.82;101106.94;1784111;78;21566;-36
2020/12/07 03:10:27;;;;;;;7.17;4.85;;;;;;;20.65;38.89;101118.91;1788622;78;21072;-36
2020/12/07 03:12:56;;;;;;;6.40;4.95;;;;;;;20.64;38.89;101107.31;1736254;80;22155;-36
2020/12/07 03:15:25;;;;;;;7.67;5.15;;;;;;;20.64;38.87;101112.67;1731960;80;21631;-36
2020/12/07 03:17:53;;;;;;;7.22;4.22;;;;;;;20.65;38.83;101108.20;1789785;78;21196;-36
2020/12/07 03:20:22;;;;;;;6.42;4.80;;;;;;;20.65;38.82;101109.06;1767427;80;21212;-36
2020/12/07 03:22:52;;;;;;;5.70;4.50;;;;;;;20.64;38.78;101098.44;1782377;78;21132;-36
2020/12/07 03:25:22;;;;;;;6.78;5.03;;;;;;;20.64;38.82;101109.98;1748083;80;21153;-37
2020/12/07 03:27:52;;;;;;;4.92;4.30;;;;;;;20.64;38.77;101101.97;1789634;78;21155;-35
2020/12/07 03:30:21;;;;;;;6.12;4.55;;;;;;;20.65;38.80;101103.71;1760701;80;21196;-36
2020/12/07 03:32:49;;;;;;;5.28;4.45;;;;;;;20.64;38.71;101100.63;1750807;78;21068;-35
2020/12/07 03:35:17;;;;;;;5.80;4.72;;;;;;;20.65;38.73;101101.52;1787830;79;21184;-36
2020/12/07 03:37:44;;;;;;;8.30;5.15;;;;;;;20.64;38.77;101096.62;1728339;81;21168;-35
2020/12/07 03:40:12;;;;;;;4.92;4.20;;;;;;;20.65;38.87;101084.98;1754112;80;21230;-36
2020/12/07 03:42:41;;;;;;;5.78;5.17;;;;;;;20.66;38.90;101085.40;1806063;79;21122;-36
2020/12/07 03:45:11;;;;;;;8.13;4.10;;;;;;;20.66;38.90;101078.71;1783470;80;21196;-36
2020/12/07 03:47:39;;;;;;;7.67;4.50;;;;;;;20.67;38.90;101083.58;1780350;79;21590;-36
2020/12/07 03:50:07;;;;;;;5.53;4.67;;;;;;;20.68;38.85;101086.17;1804325;79;21292;-36
2020/12/07 03:52:36;;;;;;;11.68;4.78;;;;;;;20.67;38.89;101081.76;1782631;80;21160;-36
2020/12/07 03:55:05;;;;;;;9.43;4.15;;;;;;;20.67;38.80;101080.42;1780060;79;21144;-36
2020/12/07 03:57:33;;;;;;;13.30;4.58;;;;;;;20.68;38.76;101078.60;1755709;78;21624;-36
2020/12/07 04:00:04;;;;;;;6.85;4.28;;;;;;;20.67;38.83;101077.75;1789488;78;21049;-37
2020/12/07 04:02:34;;;;;;;5.78;4.65;;;;;;;20.67;38.88;101080.42;1771725;79;22026;-37
2020/12/07 04:07:42;;;;;;;8.55;4.45;;;;;;;20.72;38.83;101086.39;1813912;77;22395;-37
2020/12/07 04:10:10;;;;;;;6.45;4.67;;;;;;;20.68;38.87;101085.28;1705211;81;20985;-37
2020/12/07 04:12:37;;;;;;;9.25;4.40;;;;;;;20.69;38.97;101089.22;1727010;80;21218;-37
2020/12/07 04:15:05;;;;;;;6.78;4.30;;;;;;;20.69;38.89;101083.88;1792786;80;21146;-37
2020/12/07 04:17:32;;;;;;;5.87;4.40;;;;;;;20.69;38.88;101081.20;1743477;80;21689;-37
2020/12/07 04:20:00;;;;;;;7.75;4.20;;;;;;;20.67;38.87;101084.43;1765378;80;21194;-37
2020/12/07 04:22:27;;;;;;;7.65;4.55;;;;;;;20.68;38.83;101088.84;1733633;81;21582;-37
2020/12/07 04:24:54;;;;;;;4.70;4.28;;;;;;;20.68;38.78;101087.52;1736321;80;21331;-37
2020/12/07 04:27:22;;;;;;;4.67;4.28;;;;;;;20.69;38.72;101087.03;1764613;80;21587;-37
2020/12/07 04:29:49;;;;;;;7.53;4.15;;;;;;;20.68;38.72;101084.84;1770631;80;21111;-36
2020/12/07 04:32:17;;;;;;;5.65;4.53;;;;;;;20.68;38.68;101082.16;1739673;80;21597;-36
2020/12/07 04:34:44;;;;;;;4.25;3.83;;;;;;;20.68;38.66;101081.27;1709534;81;21631;-37
2020/12/07 04:37:12;;;;;;;6.10;4.20;;;;;;;20.68;38.73;101080.83;1762898;80;21337;-37
2020/12/07 04:39:39;;;;;;;8.10;4.55;;;;;;;20.67;38.73;101072.39;1786900;79;21165;-37
2020/12/07 04:42:06;;;;;;;6.67;4.22;;;;;;;20.67;38.72;101071.06;1836621;77;21095;-37
2020/12/07 04:44:34;;;;;;;7.17;4.45;;;;;;;20.67;38.66;101077.75;1790837;78;21625;-37
2020/12/07 04:47:02;;;;;;;5.47;4.22;;;;;;;20.66;38.63;101069.34;1838200;77;21592;-37
2020/12/07 04:49:30;;;;;;;6.15;4.00;;;;;;;20.67;38.59;101060.84;1815137;77;21162;-37
2020/12/07 04:51:59;;;;;;;6.20;3.80;;;;;;;20.66;38.59;101062.66;1815535;77;21150;-37
2020/12/07 04:54:29;;;;;;;7.47;4.08;;;;;;;20.66;38.65;101064.00;1843761;77;21134;-37
2020/12/07 04:56:57;;;;;;;5.17;4.10;;;;;;;20.66;38.61;101059.98;1815557;77;21147;-37
2020/12/07 04:59:25;;;;;;;6.80;4.20;;;;;;;20.66;38.60;101054.64;1843814;77;21155;-37
2020/12/07 05:01:53;;;;;;;4.90;4.22;;;;;;;20.66;38.65;101051.08;1812655;78;21975;-37
2020/12/07 05:04:20;;;;;;;7.78;4.00;;;;;;;20.66;38.68;101046.62;1786588;77;21145;-36
2020/12/07 05:07:09;;;;;;;5.30;4.67;;;;;;;20.66;38.72;101041.27;1813259;78;21553;-37
2020/12/07 05:09:38;;;;;;;9.45;4.03;;;;;;;20.65;38.66;101036.85;1777438;77;21132;-37
2020/12/07 05:12:13;;;;;;;6.17;4.20;;;;;;;20.64;38.64;101040.94;1824596;77;21099;-36
2020/12/07 05:14:36;;;;;;;12.35;4.30;;;;;;;20.64;38.74;101037.78;1843094;77;21576;-36
2020/12/07 05:17:04;;;;;;;9.05;3.90;;;;;;;20.65;38.76;101039.53;1826628;77;21183;-37
2020/12/07 05:19:31;;;;;;;7.35;4.40;;;;;;;20.65;38.71;101052.90;1827854;77;21699;-36
2020/12/07 05:21:59;;;;;;;4.67;4.17;;;;;;;20.66;38.70;101049.30;1843193;77;21167;-37
2020/12/07 05:24:27;;;;;;;5.05;3.85;;;;;;;20.66;38.67;101046.62;1834969;77;21126;-36
2020/12/07 05:27:02;;;;;;;6.10;4.30;;;;;;;20.67;38.68;101042.98;1815515;77;21508;-37
2020/12/07 05:29:32;;;;;;;10.28;4.35;;;;;;;20.65;38.63;101038.19;1814534;77;21146;-37
2020/12/07 05:31:59;;;;;;;11.28;3.98;;;;;;;20.66;38.74;101041.27;1788369;77;21082;-37
2020/12/07 05:34:26;;;;;;;16.65;4.55;;;;;;;20.65;38.70;101043.54;1788414;77;21170;-37
2020/12/07 05:36:57;;;;;;;9.00;4.17;;;;;;;20.65;38.58;101042.20;1822826;77;21131;-37
2020/12/07 05:39:25;;;;;;;8.68;3.90;;;;;;;20.65;38.47;101043.54;1786595;77;21169;-37
2020/12/07 05:41:54;;;;;;;8.83;3.90;;;;;;;20.65;38.36;101049.37;1823635;77;21134;-37
2020/12/07 05:44:22;;;;;;;7.83;4.03;;;;;;;20.64;38.27;101061.85;1751286;80;21568;-37
2020/12/07 05:46:53;;;;;;;6.95;4.10;;;;;;;20.64;38.18;101069.88;1740932;80;21118;-37
2020/12/07 05:49:21;;;;;;;7.60;3.83;;;;;;;20.63;38.06;101068.17;1775138;78;21208;-38
2020/12/07 05:52:03;;;;;;;6.10;3.62;;;;;;;20.62;38.00;101075.75;1798913;79;21246;-40
2020/12/07 05:54:31;;;;;;;12.60;4.12;;;;;;;20.63;38.13;101077.53;1779701;78;21232;-40
2020/12/07 05:57:09;;;;;;;9.05;3.62;;;;;;;20.63;38.32;101076.19;1772045;79;21089;-40
2020/12/07 05:59:41;;;;;;;11.55;3.75;;;;;;;20.63;38.34;101078.86;1779236;78;21601;-41
2020/12/07 06:02:10;;;;;;;9.80;3.50;;;;;;;20.64;38.39;101087.27;1778994;78;21509;-41
2020/12/07 06:04:38;;;;;;;7.10;3.70;;;;;;;20.64;38.48;101085.92;1791622;77;21185;-41
2020/12/07 06:07:07;;;;;;;5.70;4.15;;;;;;;20.65;38.54;101085.47;1789196;78;21144;-41
2020/12/07 06:09:34;;;;;;;6.08;3.83;;;;;;;20.65;38.53;101080.13;1763120;77;21166;-40
2020/12/07 06:12:06;;;;;;;5.37;3.98;;;;;;;20.66;38.47;101078.71;1790574;77;21182;-40
2020/12/07 06:14:33;;;;;;;11.55;3.67;;;;;;;20.66;38.45;101074.70;1842002;77;21655;-39
2020/12/07 06:17:01;;;;;;;7.45;5.20;;;;;;;20.65;36.74;101083.66;1831398;77;21186;-41
2020/12/07 06:19:32;;;;;;;12.23;5.12;;;;;;;20.48;33.40;101067.59;1831895;77;21095;-37
2020/12/07 06:22:02;;;;;;;9.85;5.37;;;;;;;20.16;32.82;101064.73;1781601;79;21067;-38
2020/12/07 06:24:41;;;;;;;10.80;6.97;;;;;;;19.83;31.83;101074.80;1800645;79;21699;-37
2020/12/07 06:27:11;;;;;;;11.95;5.25;;;;;;;19.49;31.28;101065.70;1809248;77;21516;-39
2020/12/07 06:29:38;;;;;;;9.80;6.28;;;;;;;19.08;33.20;101072.02;1817531;77;22116;-38
2020/12/07 06:32:06;;;;;;;9.60;5.75;;;;;;;18.99;32.54;101071.56;1840314;77;21162;-38
2020/12/07 06:34:39;;;;;;;9.60;6.33;;;;;;;18.85;30.13;101067.70;1822215;77;21618;-35
2020/12/07 06:37:10;;;;;;;15.88;6.42;;;;;;;18.53;31.57;101063.28;1821673;77;21115;-36
2020/12/07 06:39:47;;;;;;;19.02;6.20;;;;;;;18.36;32.26;101077.80;1789891;79;21166;-36
2020/12/07 06:42:15;;;;;;;19.55;6.17;;;;;;;18.26;31.12;101068.46;1812208;77;21382;-36
2020/12/07 06:44:50;;;;;;;19.00;6.28;;;;;;;18.08;31.97;101062.95;1786348;78;21118;-36
2020/12/07 06:47:25;;;;;;;13.03;6.50;;;;;;;18.06;32.40;101068.81;1807884;77;21174;-37
2020/12/07 06:49:59;;;;;;;29.18;9.33;;;;;;;18.04;32.42;101068.02;1784053;78;21116;-31
2020/12/07 06:52:26;;;;;;;342.32;275.50;;;;;;;18.06;32.67;101071.95;1754917;79;21611;-39
2020/12/07 06:55:09;;;;;;;351.65;272.05;;;;;;;18.01;30.33;101080.12;1819941;77;21998;-43
2020/12/07 06:57:47;;;;;;;293.73;219.00;;;;;;;17.80;30.11;101073.37;1811063;77;21102;-38
2020/12/07 07:00:19;;;;;;;190.90;133.87;;;;;;;17.67;30.62;101066.80;1812212;77;21126;-39
2020/12/07 07:02:51;;;;;;;193.40;144.10;;;;;;;17.56;29.79;101068.53;1765213;80;21193;-41
2020/12/07 07:05:25;;;;;;;137.97;93.62;;;;;;;17.29;29.59;101063.80;1810727;77;21201;-38
2020/12/07 07:07:53;;;;;;;148.55;103.90;;;;;;;16.98;29.18;101067.61;1790865;77;21174;-34
2020/12/07 07:10:23;;;;;;;126.07;88.25;;;;;;;16.65;28.95;101077.16;1804681;77;21135;-34
2020/12/07 07:12:50;;;;;;;131.87;91.55;;;;;;;16.38;30.84;101075.46;1773508;77;21206;-35
2020/12/07 07:15:19;;;;;;;112.90;80.07;;;;;;;16.28;31.59;101081.06;1813838;77;21215;-35
2020/12/07 07:17:47;;;;;;;113.90;73.80;;;;;;;16.26;32.57;101084.24;1791614;77;21674;-35
2020/12/07 07:20:17;;;;;;;80.83;53.55;;;;;;;16.37;32.35;101083.01;1795987;78;22158;-35
2020/12/07 07:22:48;;;;;;;92.60;56.88;;;;;;;16.42;31.97;101077.08;1768115;80;21166;-36
2020/12/07 07:25:25;;;;;;;71.80;49.55;;;;;;;16.44;32.84;101067.26;1778816;79;21788;-37
2020/12/07 07:28:09;;;;;;;67.00;44.73;;;;;;;16.58;32.06;101059.70;1763927;79;21134;-35
2020/12/07 07:30:35;;;;;;;62.80;42.85;;;;;;;16.61;32.16;101055.61;1788974;79;21146;-34
2020/12/07 07:33:03;;;;;;;58.45;34.05;;;;;;;16.69;32.97;101053.55;1744903;80;21142;-39
2020/12/07 07:35:32;;;;;;;60.40;36.85;;;;;;;16.85;31.60;101057.87;1812366;77;21615;-35
2020/12/07 07:37:59;;;;;;;55.90;37.80;;;;;;;16.91;32.34;101054.12;1772196;77;21110;-34
2020/12/07 07:40:29;;;;;;;57.80;37.13;;;;;;;17.06;32.84;101058.01;1794708;77;21111;-34
2020/12/07 07:43:02;;;;;;;64.00;36.50;;;;;;;17.25;33.35;101064.39;1813836;77;21599;-34
2020/12/07 07:45:35;;;;;;;51.90;34.63;;;;;;;17.45;33.61;101066.30;1743815;80;21154;-36
2020/12/07 08:03:11;;;;;;;50.95;27.17;;;;;;;18.49;34.54;101048.81;1812676;77;22783;-31
